Terminal Aerodrome Forecast
Issued by NWS Omaha/Valley, NE

Home | Current Version | Previous Version | Graphics & Text | Print | Product List | Glossary On
Versions: 1 2 3 4 5 6 7 8 9 10 11 12 13 14 15 16 17 18 19 20 21 22 23 24 25 26 27 28 29 30 31 32 33 34 35 36 37 38 39 40
330
FTUS43 KOAX 130522
TAFOFK
TAF
KOFK 130522Z 1306/1406 25010KT P6SM SKC
     FM130800 28011KT P6SM BKN200 WS018/31051KT
     FM131100 31017G25KT P6SM BKN200
     FM131500 32020G40KT P6SM BKN200
     FM132200 34019G31KT P6SM SCT060
     FM140400 34012G20KT P6SM BKN050=

USA.gov is the U.S. government's official web portal to all federal, state and local government web resources and services.